Hovedside
METAR-TAF:

METAR-TAF

Lufthavner :

Björneborg lufthavn

Björneborg, Finland

breddegrad: 61-28N, lengdegrad: 021-48E, høyde over havet: 13 m

Gjeldene værobservasjon

Denne rapporten ble laget for 34 minutter siden, klokken 04:20 UTC
Vind 1 kt fra skiftende retning
Temperatur 10°C
Luftfuktighet 93%
Trykk 1013 hPa
Sikt: 7000 m

METAR: EFPO 160420Z AUTO VRB01KT 7000 SCT010/// BKN012/// OVC014/// 10/09 Q1013

Tid: 07:54 (04:54 UTC)

Varsel

Denne rapporten ble laget for 11 timer og 20 minutter siden, klokken 17:34 UTC
Varsel gyldig fra 15. klokken 18 UTC til 15. klokken 22 UTC
Vind 9 kt fra Sør
Sikt 10 km eller mer
ingen skyer under 1500 m og ingen bygeskyer
Midlertidig
fra 15. klokken 21 UTC til 15. klokken 22 UTC
Brutte skyer i en høyde av 700 ft

TAF: EFPO 151734Z 1518/1522 18009KT CAVOK TEMPO 1521/1522 BKN007

Værobservasjoner og værvarsel for over 4000 flyplasser (METAR- og TAF-rapporter).

Tilgjengelige stasjoner er representert av de røde og gule prikkene på kartet.

Hold musepekeren over prikken for å se navnet på stasjonen.

Klikk så for å se værobservasjoner og -varsler.

For å forandre kartet kan du klikke på den grønne knappen med svart kryss for å zoome inn, på den grønne knappen med strek for å zoome ut, eller på de grønne pilene for å se tilstøtende kart.


METAR-TAF: